createdAt,value
2022-08-27T00:02:07.133Z,100090.91
2022-08-27T00:04:35.759Z,100090.47
2022-08-27T00:07:05.437Z,100087.03
2022-08-27T00:09:33.260Z,100090.66
2022-08-27T00:12:01.290Z,100084.59
2022-08-27T00:14:29.693Z,100076.56
2022-08-27T00:16:58.001Z,100079.00
2022-08-27T00:19:25.998Z,100081.44
2022-08-27T00:21:55.833Z,100074.59
2022-08-27T00:24:23.834Z,100080.00
2022-08-27T00:26:53.485Z,100069.94
2022-08-27T00:29:21.825Z,100072.06
2022-08-27T00:31:51.916Z,100056.38
2022-08-27T00:34:23.011Z,100061.69
2022-08-27T00:36:51.634Z,100055.75
2022-08-27T00:39:20.632Z,100055.97
2022-08-27T00:41:49.005Z,100062.56
2022-08-27T00:44:17.374Z,100059.81
2022-08-27T00:46:49.859Z,100058.34
2022-08-27T00:49:20.888Z,100059.94
2022-08-27T00:52:00.298Z,100065.34
2022-08-27T00:54:28.979Z,100060.78
2022-08-27T00:56:58.934Z,100067.44
2022-08-27T00:59:33.054Z,100071.47
2022-08-27T01:02:19.388Z,100067.53
2022-08-27T01:05:05.317Z,100067.44
2022-08-27T01:07:37.845Z,100061.53
2022-08-27T01:10:10.855Z,100065.53
2022-08-27T01:12:39.745Z,100062.31
2022-08-27T01:15:13.465Z,100064.22
2022-08-27T01:17:45.153Z,100056.78
2022-08-27T01:20:21.272Z,100052.75
2022-08-27T01:23:12.073Z,100062.28
2022-08-27T01:25:43.542Z,100056.16
2022-08-27T01:28:12.506Z,100049.78
2022-08-27T01:30:41.010Z,100048.06
2022-08-27T01:33:16.963Z,100058.84
2022-08-27T01:35:47.855Z,100054.75
2022-08-27T01:38:30.116Z,100058.00
2022-08-27T01:41:00.825Z,100045.72
2022-08-27T01:43:31.393Z,100047.03
2022-08-27T01:45:59.524Z,100052.50
2022-08-27T01:48:27.438Z,100046.56
2022-08-27T01:50:55.270Z,100051.22
2022-08-27T01:53:25.322Z,100050.63
2022-08-27T01:55:54.667Z,100058.19
2022-08-27T01:58:25.320Z,100053.13
2022-08-27T02:00:56.927Z,100058.81
2022-08-27T02:03:27.047Z,100044.09
2022-08-27T02:05:55.000Z,100057.09
2022-08-27T02:08:22.934Z,100050.78
2022-08-27T02:10:51.713Z,100044.19
2022-08-27T02:13:19.891Z,100047.56
2022-08-27T02:15:47.789Z,100045.22
2022-08-27T02:18:16.262Z,100047.13
2022-08-27T02:20:47.313Z,100042.03
2022-08-27T02:23:16.738Z,100042.22
2022-08-27T02:25:47.265Z,100030.03
2022-08-27T02:28:15.284Z,100050.22
2022-08-27T02:30:43.289Z,100047.69
2022-08-27T02:33:11.202Z,100044.56
2022-08-27T02:35:40.619Z,100053.47
2022-08-27T02:38:08.811Z,100044.56
2022-08-27T02:40:37.562Z,100039.66
2022-08-27T02:43:05.696Z,100049.38
2022-08-27T02:45:33.807Z,100051.94
2022-08-27T02:48:04.846Z,100051.56
2022-08-27T02:50:32.707Z,100049.31
2022-08-27T02:53:02.571Z,100049.50
2022-08-27T02:55:31.431Z,100054.94
2022-08-27T02:57:59.316Z,100057.03
2022-08-27T03:00:29.022Z,100045.81
2022-08-27T03:02:58.039Z,100047.88
2022-08-27T03:05:26.675Z,100050.84
2022-08-27T03:07:54.407Z,100050.84
2022-08-27T03:10:22.733Z,100054.63
2022-08-27T03:12:50.670Z,100047.66
2022-08-27T03:15:20.175Z,100048.69
2022-08-27T03:18:06.672Z,100049.53
2022-08-27T03:20:40.807Z,100049.34
2022-08-27T03:23:10.282Z,100051.22
2022-08-27T03:25:38.715Z,100049.53
2022-08-27T03:28:09.552Z,100054.81
2022-08-27T03:30:59.607Z,100064.63
2022-08-27T03:33:29.144Z,100054.06
2022-08-27T03:35:57.227Z,100052.25
2022-08-27T03:38:25.735Z,100051.41
2022-08-27T03:40:54.509Z,100050.56
2022-08-27T03:43:23.556Z,100049.72
2022-08-27T03:45:57.535Z,100048.97
2022-08-27T03:48:31.956Z,100037.84
2022-08-27T03:51:05.313Z,100040.66
2022-08-27T03:53:33.473Z,100040.84
2022-08-27T03:56:01.762Z,100040.66
2022-08-27T03:58:29.791Z,100042.47
2022-08-27T04:00:57.827Z,100041.22
2022-08-27T04:03:25.674Z,100038.59
2022-08-27T04:05:55.254Z,100045.56
2022-08-27T04:08:24.342Z,100042.81
2022-08-27T04:10:55.055Z,100043.56
2022-08-27T04:13:23.828Z,100049.28
2022-08-27T04:15:54.139Z,100047.97
2022-08-27T04:18:21.994Z,100042.69
2022-08-27T04:20:52.464Z,100043.28
2022-08-27T04:23:21.047Z,100044.59
2022-08-27T04:25:49.407Z,100036.06
2022-08-27T04:28:17.620Z,100040.53
2022-08-27T04:30:47.264Z,100042.72
2022-08-27T04:33:15.617Z,100038.94
2022-08-27T04:35:43.625Z,100036.19
2022-08-27T04:38:11.702Z,100035.34
2022-08-27T04:40:58.287Z,100041.19
2022-08-27T04:43:28.351Z,100047.97
2022-08-27T04:45:56.649Z,100051.25
2022-08-27T04:48:25.806Z,100054.88
2022-08-27T04:50:53.694Z,100051.72
2022-08-27T04:53:22.145Z,100048.75
2022-08-27T04:55:53.653Z,100058.56
2022-08-27T04:58:23.808Z,100046.34
2022-08-27T05:00:57.022Z,100046.47
2022-08-27T05:03:26.237Z,100046.69
2022-08-27T05:05:59.581Z,100052.00
2022-08-27T05:08:27.644Z,100062.16
2022-08-27T05:10:55.767Z,100064.25
2022-08-27T05:13:24.578Z,100063.28
2022-08-27T05:16:03.577Z,100058.06
2022-08-27T05:18:34.222Z,100055.72
2022-08-27T05:21:06.982Z,100058.69
2022-08-27T05:23:39.747Z,100060.66
2022-08-27T05:26:09.018Z,100049.28
2022-08-27T05:28:37.023Z,100055.63
2022-08-27T05:31:08.813Z,100052.31
2022-08-27T05:33:38.581Z,100057.81
2022-08-27T05:36:07.489Z,100058.13
2022-08-27T05:38:36.276Z,100057.66
2022-08-27T05:41:04.894Z,100056.75
2022-08-27T05:43:32.832Z,100053.50
2022-08-27T05:46:04.245Z,100048.97
2022-08-27T05:48:33.841Z,100057.06
2022-08-27T05:51:16.199Z,100056.59
2022-08-27T05:53:59.918Z,100051.41
2022-08-27T05:56:30.288Z,100061.91
2022-08-27T05:59:17.124Z,100068.19
2022-08-27T06:01:48.499Z,100060.72
2022-08-27T06:04:17.790Z,100058.03
2022-08-27T06:06:47.566Z,100069.34
2022-08-27T06:09:19.152Z,100063.75
2022-08-27T06:11:48.195Z,100069.50
2022-08-27T06:14:16.264Z,100073.84
2022-08-27T06:16:44.448Z,100072.16
2022-08-27T06:19:12.859Z,100066.75
2022-08-27T06:21:42.512Z,100068.03
2022-08-27T06:24:13.000Z,100075.00
2022-08-27T06:26:44.902Z,100065.78
2022-08-27T06:29:13.936Z,100064.06
2022-08-27T06:31:43.048Z,100054.81
2022-08-27T06:34:11.908Z,100062.19
2022-08-27T06:36:42.010Z,100058.63
2022-08-27T06:39:13.820Z,100060.75
2022-08-27T06:41:43.488Z,100054.13
2022-08-27T06:44:15.100Z,100063.16
2022-08-27T06:46:43.908Z,100068.78
2022-08-27T06:49:13.289Z,100068.34
2022-08-27T06:51:44.814Z,100069.75
2022-08-27T06:54:13.701Z,100068.91
2022-08-27T06:56:42.579Z,100073.69
2022-08-27T06:59:12.410Z,100069.78
2022-08-27T07:01:43.496Z,100062.31
2022-08-27T07:04:14.274Z,100069.78
2022-08-27T07:06:42.581Z,100066.84
2022-08-27T07:09:10.862Z,100067.19
2022-08-27T07:11:39.522Z,100071.25
2022-08-27T07:14:08.995Z,100076.13
2022-08-27T07:16:39.638Z,100068.22
2022-08-27T07:19:09.546Z,100070.03
2022-08-27T07:21:40.008Z,100069.25
2022-08-27T07:24:09.238Z,100061.03
2022-08-27T07:26:41.310Z,100063.47
2022-08-27T07:29:11.219Z,100060.56
2022-08-27T07:31:39.420Z,100067.56
2022-08-27T07:34:08.055Z,100061.78
2022-08-27T07:36:36.302Z,100060.81
2022-08-27T07:39:05.347Z,100060.03
2022-08-27T07:41:59.377Z,100069.34
2022-08-27T07:44:34.418Z,100072.91
2022-08-27T07:47:03.082Z,100070.22
2022-08-27T07:49:32.057Z,100071.41
2022-08-27T07:51:59.824Z,100073.50
2022-08-27T07:54:27.718Z,100073.13
2022-08-27T07:56:56.330Z,100076.19
2022-08-27T07:59:26.209Z,100080.69
2022-08-27T08:01:55.239Z,100065.47
2022-08-27T08:04:23.842Z,100070.94
2022-08-27T08:06:51.741Z,100066.44
2022-08-27T08:09:22.278Z,100067.50
2022-08-27T08:11:52.036Z,100072.84
2022-08-27T08:14:20.332Z,100065.84
2022-08-27T08:16:48.406Z,100068.09
2022-08-27T08:19:17.379Z,100060.66
2022-08-27T08:21:45.207Z,100066.47
2022-08-27T08:24:12.951Z,100056.53
2022-08-27T08:26:42.154Z,100062.06
2022-08-27T08:29:14.737Z,100062.91
2022-08-27T08:31:50.101Z,100058.19
2022-08-27T08:34:19.971Z,100054.63
2022-08-27T08:36:53.939Z,100048.31
2022-08-27T08:39:23.552Z,100055.72
2022-08-27T08:41:58.998Z,100049.38
2022-08-27T08:44:36.157Z,100056.47
2022-08-27T08:47:38.371Z,100054.06
2022-08-27T08:50:21.207Z,100059.00
2022-08-27T08:53:20.137Z,100054.50
2022-08-27T08:55:55.141Z,100051.59
2022-08-27T08:58:35.526Z,100053.78
2022-08-27T09:01:07.229Z,100049.97
2022-08-27T09:03:40.885Z,100036.66
2022-08-27T09:06:18.397Z,100046.38
2022-08-27T09:08:48.000Z,100035.84
2022-08-27T09:11:30.087Z,100040.41
2022-08-27T09:14:07.529Z,100037.34
2022-08-27T09:16:39.016Z,100033.16
2022-08-27T09:19:07.697Z,100028.97
2022-08-27T09:21:45.044Z,100032.09
2022-08-27T09:24:15.963Z,100021.06
2022-08-27T09:26:45.076Z,100033.00
2022-08-27T09:29:16.058Z,100024.94
2022-08-27T09:31:56.572Z,100029.75
2022-08-27T09:34:27.702Z,100023.75
2022-08-27T09:37:01.183Z,100019.69
2022-08-27T09:39:41.730Z,100029.59
2022-08-27T09:42:22.420Z,100022.75
2022-08-27T09:44:53.538Z,100022.78
2022-08-27T09:47:22.138Z,100026.22
2022-08-27T09:50:00.152Z,100028.66
2022-08-27T09:52:51.323Z,100025.09
2022-08-27T09:55:38.878Z,100021.84
2022-08-27T09:58:27.492Z,100018.56
2022-08-27T10:01:06.020Z,100016.34
2022-08-27T10:03:34.650Z,100003.69
2022-08-27T10:06:02.515Z,100014.94
2022-08-27T10:08:42.889Z,100013.00
2022-08-27T10:11:32.977Z,100013.94
2022-08-27T10:14:13.181Z,100004.09
2022-08-27T10:16:58.316Z,100010.97
2022-08-27T10:19:46.768Z,99999.94
2022-08-27T10:22:31.503Z,99997.84
2022-08-27T10:25:09.913Z,99991.28
2022-08-27T10:27:41.039Z,99990.66
2022-08-27T10:30:19.022Z,99991.13
2022-08-27T10:33:02.940Z,100000.50
2022-08-27T10:35:48.309Z,99995.50
2022-08-27T10:38:30.481Z,99999.59
2022-08-27T10:41:18.509Z,99992.38
2022-08-27T10:43:55.366Z,99989.13
2022-08-27T10:46:38.417Z,99988.53
2022-08-27T10:49:25.262Z,99991.25
2022-08-27T10:52:10.065Z,99983.94
2022-08-27T10:54:52.593Z,99981.84
2022-08-27T10:57:55.137Z,99980.56
2022-08-27T11:00:30.143Z,99983.28
2022-08-27T11:03:07.381Z,99981.19
2022-08-27T11:05:48.353Z,99971.00
2022-08-27T11:08:42.139Z,99975.16
2022-08-27T11:12:10.475Z,99966.38
2022-08-27T11:14:37.628Z,99971.59
2022-08-27T11:17:15.622Z,99965.75
2022-08-27T11:19:50.749Z,99969.53
2022-08-27T11:22:35.057Z,99969.50
2022-08-27T11:25:22.549Z,99969.88
2022-08-27T11:27:53.767Z,99964.72
2022-08-27T11:30:49.112Z,99964.88
2022-08-27T11:33:27.548Z,99960.16
2022-08-27T11:36:18.508Z,99965.34
2022-08-27T11:39:01.579Z,99953.66
2022-08-27T11:41:59.191Z,99961.66
2022-08-27T11:44:28.760Z,99946.28
2022-08-27T11:47:09.690Z,99952.34
2022-08-27T11:49:48.476Z,99958.03
2022-08-27T11:52:37.606Z,99955.53
2022-08-27T11:55:25.126Z,99954.91
2022-08-27T11:58:08.427Z,99955.94
2022-08-27T12:00:39.996Z,99946.31
2022-08-27T12:03:22.515Z,99947.22
2022-08-27T12:05:53.848Z,99948.22
2022-08-27T12:08:24.654Z,99949.84
2022-08-27T12:11:03.914Z,99949.66
2022-08-27T12:13:41.876Z,99952.50
2022-08-27T12:16:39.905Z,99943.34
2022-08-27T12:19:16.293Z,99951.28
2022-08-27T12:22:21.849Z,99940.22
2022-08-27T12:24:59.736Z,99940.00
2022-08-27T12:27:34.880Z,99940.84
2022-08-27T12:30:28.050Z,99927.53
2022-08-27T12:32:59.630Z,99933.34
2022-08-27T12:35:44.259Z,99934.00
2022-08-27T12:38:15.968Z,99932.59
2022-08-27T12:40:53.357Z,99928.84
2022-08-27T12:43:26.222Z,99937.41
2022-08-27T12:46:00.862Z,99919.69
2022-08-27T12:48:32.394Z,99920.53
2022-08-27T12:51:39.121Z,99937.97
2022-08-27T12:54:19.153Z,99925.81
2022-08-27T12:57:08.642Z,99927.41
2022-08-27T12:59:42.462Z,99928.31
2022-08-27T13:02:48.073Z,99930.75
2022-08-27T13:05:21.053Z,99925.66
2022-08-27T13:07:51.113Z,99929.63
2022-08-27T13:10:29.539Z,99929.72
2022-08-27T13:13:12.354Z,99922.75
2022-08-27T13:15:52.845Z,99921.09
2022-08-27T13:18:21.798Z,99918.50
2022-08-27T13:21:00.350Z,99923.63
2022-08-27T13:23:28.438Z,99921.59
2022-08-27T13:26:03.495Z,99921.47
2022-08-27T13:28:34.104Z,99917.03
2022-08-27T13:31:03.921Z,99918.94
2022-08-27T13:33:35.211Z,99920.81
2022-08-27T13:36:04.173Z,99919.16
2022-08-27T13:38:36.302Z,99925.00
2022-08-27T13:41:27.254Z,99924.38
2022-08-27T13:43:59.139Z,99927.50
2022-08-27T13:46:31.312Z,99919.16
2022-08-27T13:49:00.442Z,99918.09
2022-08-27T13:51:34.680Z,99920.44
2022-08-27T13:54:18.402Z,99928.56
2022-08-27T13:56:51.781Z,99916.00
2022-08-27T13:59:19.464Z,99915.38
2022-08-27T14:02:02.896Z,99914.97
2022-08-27T14:04:48.192Z,99915.00
2022-08-27T14:07:36.947Z,99916.69
2022-08-27T14:10:32.567Z,99917.50
2022-08-27T14:13:22.747Z,99920.25
2022-08-27T14:15:55.986Z,99920.91
2022-08-27T14:18:42.533Z,99913.50
2022-08-27T14:21:16.468Z,99914.34
2022-08-27T14:23:44.540Z,99914.50
2022-08-27T14:26:15.663Z,99908.59
2022-08-27T14:28:43.633Z,99914.06
2022-08-27T14:31:12.259Z,99906.88
2022-08-27T14:33:40.399Z,99906.88
2022-08-27T14:36:09.430Z,99906.50
2022-08-27T14:38:40.982Z,99905.13
2022-08-27T14:41:09.281Z,99909.50
2022-08-27T14:43:37.883Z,99906.03
2022-08-27T14:46:11.632Z,99904.38
2022-08-27T14:48:43.442Z,99914.03
2022-08-27T14:51:32.358Z,99913.19
2022-08-27T14:54:00.189Z,99906.50
2022-08-27T14:56:28.252Z,99906.66
2022-08-27T14:58:56.143Z,99899.66
2022-08-27T15:01:26.306Z,99903.47
2022-08-27T15:03:56.002Z,99898.47
2022-08-27T15:06:25.195Z,99901.78
2022-08-27T15:08:54.864Z,99897.53
2022-08-27T15:11:26.510Z,99900.50
2022-08-27T15:13:55.086Z,99905.00
2022-08-27T15:16:34.278Z,99899.97
2022-08-27T15:19:03.373Z,99898.75
2022-08-27T15:21:31.584Z,99906.13
2022-08-27T15:24:02.819Z,99901.00
2022-08-27T15:26:31.747Z,99894.41
2022-08-27T15:29:02.932Z,99891.44
2022-08-27T15:31:35.000Z,99888.47
2022-08-27T15:34:03.124Z,99890.94
2022-08-27T15:36:30.900Z,99900.06
2022-08-27T15:38:58.892Z,99895.16
2022-08-27T15:41:29.247Z,99888.34
2022-08-27T15:43:58.002Z,99891.53
2022-08-27T15:46:26.363Z,99893.00
2022-08-27T15:48:54.575Z,99889.31
2022-08-27T15:51:32.150Z,99890.16
2022-08-27T15:54:01.229Z,99883.34
2022-08-27T15:56:33.862Z,99875.72
2022-08-27T15:59:02.662Z,99882.16
2022-08-27T16:01:34.277Z,99886.06
2022-08-27T16:04:03.204Z,99889.88
2022-08-27T16:06:31.259Z,99882.78
2022-08-27T16:08:59.321Z,99883.06
2022-08-27T16:11:28.014Z,99885.47
2022-08-27T16:13:55.936Z,99892.31
2022-08-27T16:16:28.489Z,99891.19
2022-08-27T16:18:56.628Z,99885.50
2022-08-27T16:21:24.474Z,99890.72
2022-08-27T16:23:52.469Z,99879.34
2022-08-27T16:26:20.205Z,99892.50
2022-08-27T16:28:48.158Z,99886.66
2022-08-27T16:31:16.302Z,99889.25
2022-08-27T16:33:44.290Z,99877.53
2022-08-27T16:36:13.024Z,99887.53
2022-08-27T16:38:41.026Z,99884.41
2022-08-27T16:41:09.201Z,99879.78
2022-08-27T16:43:38.548Z,99892.22
2022-08-27T16:46:07.314Z,99879.00
2022-08-27T16:49:01.511Z,99882.56
2022-08-27T16:51:32.626Z,99879.28
2022-08-27T16:54:01.878Z,99883.03
2022-08-27T16:56:31.013Z,99881.38
2022-08-27T16:59:01.518Z,99885.75
2022-08-27T17:01:29.663Z,99890.47
2022-08-27T17:04:13.373Z,99885.16
2022-08-27T17:06:46.202Z,99889.19
2022-08-27T17:09:14.172Z,99887.97
2022-08-27T17:11:43.427Z,99889.16
2022-08-27T17:14:12.267Z,99899.91
2022-08-27T17:16:41.632Z,99905.91
2022-08-27T17:19:10.929Z,99906.06
2022-08-27T17:21:45.753Z,99905.50
2022-08-27T17:24:13.995Z,99912.88
2022-08-27T17:26:41.852Z,99913.38
2022-08-27T17:29:09.703Z,99922.56
2022-08-27T17:31:40.574Z,99922.00
2022-08-27T17:34:17.865Z,99925.53
2022-08-27T17:36:46.269Z,99919.19
2022-08-27T17:39:14.794Z,99917.69
2022-08-27T17:41:48.857Z,99929.78
2022-08-27T17:44:27.302Z,99927.38
2022-08-27T17:46:58.413Z,99926.94
2022-08-27T17:49:27.325Z,99931.06
2022-08-27T17:51:58.937Z,99935.72
2022-08-27T17:54:36.770Z,99943.16
2022-08-27T17:57:12.374Z,99946.94
2022-08-27T17:59:40.205Z,99946.88
2022-08-27T18:02:08.927Z,99952.28
2022-08-27T18:04:37.829Z,99952.19
2022-08-27T18:07:05.949Z,99956.31
2022-08-27T18:09:33.651Z,99954.47
2022-08-27T18:12:01.808Z,99948.59
2022-08-27T18:14:29.812Z,99949.19
2022-08-27T18:16:58.315Z,99956.38
2022-08-27T18:19:26.457Z,99957.50
2022-08-27T18:21:54.863Z,99948.97
2022-08-27T18:24:22.702Z,99957.09
2022-08-27T18:26:50.508Z,99961.25
2022-08-27T18:29:18.818Z,99968.84
2022-08-27T18:31:46.598Z,99965.19
2022-08-27T18:34:18.757Z,99964.50
2022-08-27T18:36:48.751Z,99962.66
2022-08-27T18:39:16.525Z,99966.81
2022-08-27T18:41:44.400Z,99971.53
2022-08-27T18:44:17.124Z,99975.00
2022-08-27T18:46:45.983Z,99981.19
2022-08-27T18:49:13.961Z,99983.22
2022-08-27T18:51:45.459Z,99988.78
2022-08-27T18:54:16.206Z,99991.50
2022-08-27T18:56:43.907Z,99986.44
2022-08-27T18:59:13.068Z,99983.63
2022-08-27T19:01:42.091Z,99999.41
2022-08-27T19:04:10.436Z,100000.66
2022-08-27T19:06:38.188Z,100005.50
2022-08-27T19:09:06.285Z,100003.63
2022-08-27T19:11:34.372Z,100010.56
2022-08-27T19:14:02.086Z,100008.03
2022-08-27T19:16:41.749Z,99997.19
2022-08-27T19:19:11.235Z,100013.84
2022-08-27T19:21:39.308Z,100009.28
2022-08-27T19:24:07.714Z,100013.09
2022-08-27T19:26:35.977Z,100012.41
2022-08-27T19:29:04.561Z,100014.03
2022-08-27T19:31:33.519Z,100012.34
2022-08-27T19:34:01.308Z,100007.00
2022-08-27T19:36:29.384Z,100013.31
2022-08-27T19:38:57.238Z,100008.00
2022-08-27T19:41:27.926Z,100009.22
2022-08-27T19:43:56.050Z,100013.72
2022-08-27T19:46:25.744Z,100013.94
2022-08-27T19:48:55.397Z,100012.00
2022-08-27T19:51:23.289Z,100016.97
2022-08-27T19:53:51.192Z,100013.34
2022-08-27T19:56:19.059Z,100009.50
2022-08-27T19:58:47.025Z,100017.69
2022-08-27T20:01:14.809Z,100014.81
2022-08-27T20:03:42.865Z,100015.78
2022-08-27T20:06:11.250Z,100013.34
2022-08-27T20:08:39.547Z,100023.97
2022-08-27T20:11:07.297Z,100025.56
2022-08-27T20:13:35.450Z,100022.28
2022-08-27T20:16:06.331Z,100023.50
2022-08-27T20:18:36.642Z,100020.59
2022-08-27T20:21:05.799Z,100017.19
2022-08-27T20:23:34.392Z,100024.72
2022-08-27T20:26:02.528Z,100013.34
2022-08-27T20:28:39.746Z,100012.63
2022-08-27T20:31:08.775Z,100012.63
2022-08-27T20:33:36.807Z,100014.56
2022-08-27T20:36:06.626Z,100018.75
2022-08-27T20:38:35.562Z,100020.31
2022-08-27T20:41:03.368Z,100016.19
2022-08-27T20:43:31.149Z,100016.53
2022-08-27T20:45:59.777Z,100021.09
2022-08-27T20:48:28.387Z,100020.81
2022-08-27T20:50:56.289Z,100022.13
2022-08-27T20:53:26.135Z,100020.38
2022-08-27T20:55:57.334Z,100022.28
2022-08-27T20:58:44.592Z,100024.66
2022-08-27T21:01:12.517Z,100017.38
2022-08-27T21:03:40.610Z,100018.03
2022-08-27T21:06:08.565Z,100017.28
2022-08-27T21:08:39.339Z,100014.97
2022-08-27T21:11:13.162Z,100019.44
2022-08-27T21:13:55.384Z,100010.19
2022-08-27T21:16:24.900Z,100005.44
2022-08-27T21:18:54.084Z,100011.47
2022-08-27T21:21:22.786Z,100012.31
2022-08-27T21:23:51.240Z,100012.88
2022-08-27T21:26:22.078Z,100009.28
2022-08-27T21:28:49.995Z,100006.72
2022-08-27T21:31:25.255Z,100013.13
2022-08-27T21:33:53.143Z,100009.72
2022-08-27T21:36:20.836Z,100006.31
2022-08-27T21:38:48.994Z,100011.22
2022-08-27T21:41:16.644Z,100004.84
2022-08-27T21:43:44.511Z,100009.00
2022-08-27T21:46:12.473Z,100004.25
2022-08-27T21:48:40.177Z,100003.00
2022-08-27T21:51:13.713Z,100007.38
2022-08-27T21:53:42.988Z,100009.84
2022-08-27T21:56:12.527Z,100015.53
2022-08-27T21:58:40.624Z,100009.69
2022-08-27T22:01:09.107Z,100007.59
2022-08-27T22:03:37.424Z,100006.00
2022-08-27T22:06:07.268Z,100006.66
2022-08-27T22:08:35.554Z,100003.69
2022-08-27T22:11:03.404Z,100005.38
2022-08-27T22:13:32.267Z,100003.47
2022-08-27T22:16:00.286Z,99998.06
2022-08-27T22:18:28.077Z,99992.34
2022-08-27T22:20:58.903Z,99989.22
2022-08-27T22:23:27.487Z,99987.84
2022-08-27T22:25:55.556Z,99992.03
2022-08-27T22:28:23.470Z,99993.94
2022-08-27T22:30:51.405Z,99992.25
2022-08-27T22:33:19.309Z,99992.88
2022-08-27T22:35:47.586Z,99995.22
2022-08-27T22:38:15.870Z,99997.09
2022-08-27T22:40:43.614Z,99984.81
2022-08-27T22:43:12.351Z,99981.31
2022-08-27T22:45:40.220Z,99981.75
2022-08-27T22:48:07.976Z,99981.53
2022-08-27T22:50:35.803Z,99986.28
2022-08-27T22:53:04.084Z,99987.88
2022-08-27T22:55:31.781Z,99985.66
2022-08-27T22:58:01.376Z,99982.47
2022-08-27T23:00:33.660Z,99983.31
2022-08-27T23:03:02.064Z,99980.78
2022-08-27T23:05:40.155Z,99979.06
2022-08-27T23:08:12.050Z,99966.88
2022-08-27T23:10:42.391Z,99972.91
2022-08-27T23:13:12.129Z,99970.56
2022-08-27T23:15:40.818Z,99977.09
2022-08-27T23:18:08.797Z,99973.94
2022-08-27T23:20:36.624Z,99985.84
2022-08-27T23:23:04.847Z,99982.38
2022-08-27T23:25:52.245Z,99972.91
2022-08-27T23:28:20.733Z,99982.19
2022-08-27T23:30:49.558Z,99981.56
2022-08-27T23:33:17.806Z,99985.16
2022-08-27T23:35:48.228Z,99983.56
2022-08-27T23:38:20.905Z,99978.56
2022-08-27T23:40:50.120Z,99978.53
2022-08-27T23:43:18.494Z,99984.94
2022-08-27T23:45:46.534Z,99982.66
2022-08-27T23:48:14.569Z,99984.94
2022-08-27T23:50:44.155Z,99984.63
2022-08-27T23:53:13.164Z,99987.66
2022-08-27T23:55:41.106Z,99980.66
2022-08-27T23:58:10.077Z,99986.44
